createdAt,value
2018-06-29T00:02:25.659Z,41.92
2018-06-29T00:04:54.151Z,41.30
2018-06-29T00:07:22.715Z,37.95
2018-06-29T00:09:51.227Z,44.10
2018-06-29T00:12:19.747Z,45.03
2018-06-29T00:14:48.462Z,45.63
2018-06-29T00:17:17.370Z,43.17
2018-06-29T00:19:45.843Z,45.80
2018-06-29T00:31:51.606Z,43.87
2018-06-29T00:34:20.067Z,44.10
2018-06-29T00:36:48.795Z,42.50
2018-06-29T00:39:17.430Z,45.73
2018-06-29T00:41:45.938Z,43.50
2018-06-29T00:52:00.549Z,44.30
2018-06-29T00:54:29.067Z,46.20
2018-06-29T00:56:57.597Z,46.17
2018-06-29T00:59:26.104Z,48.17
2018-06-29T01:01:54.832Z,48.87
2018-06-29T01:04:23.442Z,46.88
2018-06-29T01:06:52.063Z,46.90
2018-06-29T01:09:22.661Z,43.28
2018-06-29T01:11:51.335Z,43.57
2018-06-29T01:14:20.258Z,43.70
2018-06-29T01:16:48.878Z,40.10
2018-06-29T01:19:17.459Z,43.50
2018-06-29T01:21:46.042Z,42.33
2018-06-29T01:24:16.065Z,44.63
2018-06-29T01:26:44.666Z,42.93
2018-06-29T01:29:13.233Z,43.50
2018-06-29T01:31:41.794Z,44.53
2018-06-29T01:34:10.326Z,37.67
2018-06-29T01:36:38.904Z,41.43
2018-06-29T01:39:09.406Z,40.80
2018-06-29T01:41:37.915Z,41.90
2018-06-29T01:44:06.462Z,44.97
2018-06-29T01:46:35.084Z,42.03
2018-06-29T01:49:03.566Z,46.77
2018-06-29T01:51:32.115Z,43.93
2018-06-29T01:54:00.621Z,41.93
2018-06-29T01:56:29.190Z,45.37
2018-06-29T01:58:58.126Z,43.80
2018-06-29T02:01:26.643Z,41.80
2018-06-29T02:03:55.223Z,38.30
2018-06-29T02:06:23.741Z,39.70
2018-06-29T02:08:52.231Z,38.00
2018-06-29T02:11:20.747Z,42.30
2018-06-29T02:13:49.253Z,47.93
2018-06-29T02:16:17.787Z,46.35
2018-06-29T02:18:46.342Z,45.20
2018-06-29T02:21:16.810Z,42.70
2018-06-29T02:23:45.299Z,46.03
2018-06-29T02:26:14.698Z,46.27
2018-06-29T02:28:43.349Z,45.40
2018-06-29T02:31:11.879Z,47.77
2018-06-29T02:33:40.070Z,42.60
2018-06-29T02:36:08.603Z,43.90
2018-06-29T02:38:37.108Z,44.10
2018-06-29T02:41:06.034Z,45.33
2018-06-29T02:43:34.870Z,44.37
2018-06-29T02:46:03.423Z,41.90
2018-06-29T02:48:31.694Z,45.10
2018-06-29T02:51:00.443Z,39.30
2018-06-29T02:53:28.933Z,45.43
2018-06-29T02:55:57.427Z,45.17
2018-06-29T02:58:25.972Z,44.30
2018-06-29T03:00:54.497Z,41.23
2018-06-29T03:03:22.672Z,43.60
2018-06-29T03:05:51.640Z,43.47
2018-06-29T03:08:19.801Z,41.57
2018-06-29T03:10:48.341Z,41.63
2018-06-29T03:13:18.820Z,38.92
2018-06-29T03:15:46.977Z,44.77
2018-06-29T03:18:15.999Z,42.48
2018-06-29T03:20:44.578Z,42.95
2018-06-29T03:23:13.098Z,45.80
2018-06-29T03:25:41.649Z,47.57
2018-06-29T03:28:10.639Z,45.33
2018-06-29T03:30:39.124Z,43.17
2018-06-29T03:33:07.682Z,42.90
2018-06-29T03:35:36.117Z,45.00
2018-06-29T03:38:04.622Z,46.00
2018-06-29T03:40:33.370Z,45.00
2018-06-29T03:43:02.075Z,43.10
2018-06-29T03:45:30.567Z,42.30
2018-06-29T03:47:59.031Z,45.20
2018-06-29T03:50:27.951Z,46.48
2018-06-29T03:52:56.458Z,41.10
2018-06-29T03:55:24.617Z,40.70
2018-06-29T03:57:53.131Z,41.80
2018-06-29T04:00:21.603Z,41.20
2018-06-29T04:02:50.095Z,40.93
2018-06-29T04:05:19.035Z,40.43
2018-06-29T04:07:47.482Z,39.30
2018-06-29T04:10:17.478Z,41.63
2018-06-29T04:12:46.435Z,41.97
2018-06-29T04:35:53.634Z,44.13
2018-06-29T04:38:22.142Z,46.40
2018-06-29T04:40:50.607Z,41.83
2018-06-29T04:43:19.810Z,46.30
2018-06-29T04:45:48.330Z,41.43
2018-06-29T04:48:17.528Z,44.43
2018-06-29T04:50:46.037Z,41.53
2018-06-29T05:05:46.730Z,41.80
2018-06-29T05:20:47.003Z,37.50
2018-06-29T05:23:17.088Z,40.93
2018-06-29T05:25:45.617Z,42.00
2018-06-29T05:28:15.533Z,34.00
2018-06-29T05:30:44.060Z,41.30
2018-06-29T05:33:12.657Z,42.57
2018-06-29T05:35:42.228Z,40.70
2018-06-29T05:38:10.791Z,40.77
2018-06-29T05:40:39.286Z,41.80
2018-06-29T05:43:07.764Z,39.50
2018-06-29T05:45:37.472Z,41.63
2018-06-29T05:48:06.034Z,40.83
2018-06-29T05:50:34.351Z,41.70
2018-06-29T05:53:02.956Z,43.38
2018-06-29T05:55:31.579Z,41.13
2018-06-29T05:58:00.186Z,44.00
2018-06-29T06:00:28.748Z,42.30
2018-06-29T06:02:57.366Z,41.33
2018-06-29T06:05:25.952Z,39.00
2018-06-29T06:07:54.955Z,42.62
2018-06-29T06:10:23.485Z,40.53
2018-06-29T06:12:51.986Z,42.70
2018-06-29T06:15:20.527Z,40.00
2018-06-29T06:17:49.015Z,38.13
2018-06-29T06:20:17.490Z,35.90
2018-06-29T06:22:46.497Z,38.83
2018-06-29T06:34:36.551Z,39.42
2018-06-29T06:37:05.369Z,36.37
2018-06-29T06:39:33.846Z,37.85
2018-06-29T06:42:02.491Z,38.70
2018-06-29T06:44:30.675Z,39.37
2018-06-29T06:46:59.473Z,35.40
2018-06-29T06:49:28.033Z,36.70
2018-06-29T06:51:56.562Z,37.03
2018-06-29T06:54:25.075Z,37.37
2018-06-29T06:56:53.970Z,38.33
2018-06-29T06:59:22.595Z,34.45
2018-06-29T07:01:51.034Z,37.50
2018-06-29T07:04:19.619Z,34.25
2018-06-29T07:06:48.163Z,37.87
2018-06-29T07:09:17.483Z,38.05
2018-06-29T07:11:46.399Z,36.73
2018-06-29T07:26:47.866Z,32.53
2018-06-29T07:29:16.602Z,33.20
2018-06-29T07:31:45.104Z,34.73
2018-06-29T07:34:13.588Z,35.40
2018-06-29T07:36:41.762Z,31.00
2018-06-29T07:39:10.944Z,33.07
2018-06-29T07:41:39.528Z,35.23
2018-06-29T07:44:08.398Z,33.17
2018-06-29T07:46:36.954Z,32.57
2018-06-29T07:49:05.961Z,35.13
2018-06-29T07:51:34.563Z,34.63
2018-06-29T07:54:03.096Z,35.20
2018-06-29T07:56:31.638Z,33.40
2018-06-29T07:59:00.457Z,31.50
2018-06-29T08:01:28.970Z,30.33
2018-06-29T08:03:57.503Z,33.65
2018-06-29T08:06:26.803Z,32.97
2018-06-29T08:08:55.289Z,31.23
2018-06-29T08:11:23.807Z,35.00
2018-06-29T08:13:52.327Z,33.83
2018-06-29T08:16:20.897Z,34.75
2018-06-29T08:18:49.385Z,32.05
2018-06-29T08:21:19.041Z,32.03
2018-06-29T08:23:47.627Z,32.73
2018-06-29T08:26:24.137Z,30.92
2018-06-29T08:28:52.840Z,30.87
2018-06-29T08:31:21.414Z,30.92
2018-06-29T08:33:50.150Z,33.60
2018-06-29T08:36:18.368Z,30.80
2018-06-29T08:38:47.843Z,31.90
2018-06-29T08:41:17.771Z,30.32
2018-06-29T08:43:46.290Z,31.00
2018-06-29T08:46:16.616Z,30.15
2018-06-29T08:48:46.859Z,33.20
2018-06-29T08:51:17.952Z,31.50
2018-06-29T08:53:46.662Z,32.33
2018-06-29T08:56:16.756Z,29.90
2018-06-29T08:58:45.329Z,31.30
2018-06-29T09:01:14.483Z,31.23
2018-06-29T09:03:43.245Z,33.50
2018-06-29T09:06:11.846Z,33.87
2018-06-29T09:08:40.013Z,33.60
2018-06-29T09:11:08.655Z,32.63
2018-06-29T09:13:37.214Z,33.97
2018-06-29T09:16:07.794Z,33.50
2018-06-29T09:18:36.428Z,33.67
2018-06-29T09:21:04.951Z,36.30
2018-06-29T09:23:35.029Z,36.05
2018-06-29T09:26:04.241Z,35.05
2018-06-29T09:28:33.162Z,35.00
2018-06-29T09:31:01.763Z,35.90
2018-06-29T09:33:30.695Z,39.17
2018-06-29T09:35:59.179Z,39.80
2018-06-29T09:38:27.890Z,38.40
2018-06-29T09:52:29.027Z,39.73
2018-06-29T09:54:57.747Z,37.25
2018-06-29T09:57:26.256Z,38.63
2018-06-29T09:59:55.006Z,41.37
2018-06-29T10:02:24.077Z,40.52
2018-06-29T10:04:52.814Z,40.00
2018-06-29T10:07:21.936Z,39.40
2018-06-29T10:09:50.495Z,39.58
2018-06-29T10:12:18.666Z,39.43
2018-06-29T10:14:47.608Z,38.30
2018-06-29T10:17:16.567Z,40.90
2018-06-29T10:19:45.187Z,39.20
2018-06-29T10:22:14.744Z,37.75
2018-06-29T10:24:43.323Z,38.80
2018-06-29T10:27:11.835Z,36.43
2018-06-29T10:29:40.495Z,35.17
2018-06-29T10:32:08.967Z,34.57
2018-06-29T10:43:17.538Z,35.58
2018-06-29T10:45:46.027Z,33.83
2018-06-29T10:56:36.255Z,34.90
2018-06-29T10:59:04.926Z,34.93
2018-06-29T11:01:33.470Z,33.57
2018-06-29T11:04:01.971Z,34.30
2018-06-29T11:06:30.592Z,33.55
2018-06-29T11:08:59.625Z,34.80
2018-06-29T11:11:28.200Z,34.50
2018-06-29T11:13:56.894Z,37.70
2018-06-29T11:16:25.406Z,34.97
2018-06-29T11:18:53.863Z,34.90
2018-06-29T11:21:22.396Z,34.63
2018-06-29T11:23:50.696Z,35.73
2018-06-29T11:26:19.376Z,35.45
2018-06-29T11:28:47.961Z,34.17
2018-06-29T11:31:17.638Z,33.42
2018-06-29T11:33:46.224Z,34.43
2018-06-29T11:36:16.610Z,33.80
2018-06-29T11:38:45.094Z,31.63
2018-06-29T11:41:13.620Z,31.30
2018-06-29T11:43:41.790Z,33.93
2018-06-29T11:46:10.311Z,31.80
2018-06-29T11:48:38.942Z,30.90
2018-06-29T11:51:07.494Z,32.80
2018-06-29T11:53:35.996Z,34.40
2018-06-29T11:56:04.605Z,34.48
2018-06-29T11:58:32.791Z,30.10
2018-06-29T12:01:01.946Z,33.27
2018-06-29T12:03:30.531Z,34.63
2018-06-29T12:05:59.560Z,33.80
2018-06-29T12:08:28.144Z,30.62
2018-06-29T12:10:56.935Z,29.60
2018-06-29T12:13:26.626Z,30.10
2018-06-29T12:15:55.747Z,29.03
2018-06-29T12:18:24.764Z,29.87
2018-06-29T12:20:53.274Z,29.30
2018-06-29T12:23:22.156Z,29.40
2018-06-29T12:25:51.400Z,31.40
2018-06-29T12:28:19.686Z,30.40
2018-06-29T12:30:48.338Z,32.53
2018-06-29T12:33:17.587Z,30.03
2018-06-29T12:35:46.138Z,28.70
2018-06-29T12:57:26.221Z,26.37
2018-06-29T12:59:54.771Z,33.80
2018-06-29T13:02:23.796Z,34.08
2018-06-29T13:04:52.301Z,31.23
2018-06-29T13:07:20.801Z,31.25
2018-06-29T13:09:49.450Z,30.73
2018-06-29T13:12:18.007Z,27.80
2018-06-29T13:14:46.722Z,26.25
2018-06-29T13:29:47.578Z,26.80
2018-06-29T13:32:17.555Z,27.27
2018-06-29T13:34:46.086Z,27.20
2018-06-29T13:37:16.622Z,28.40
2018-06-29T13:39:45.151Z,23.77
2018-06-29T13:42:14.540Z,27.57
2018-06-29T13:44:43.026Z,25.50
2018-06-29T13:47:11.831Z,24.30
2018-06-29T13:49:40.314Z,27.20
2018-06-29T13:52:08.907Z,26.40
2018-06-29T13:54:37.514Z,25.00
2018-06-29T13:57:05.738Z,23.63
2018-06-29T13:59:34.295Z,21.30
2018-06-29T14:02:03.323Z,24.03
2018-06-29T14:04:32.349Z,24.93
2018-06-29T14:07:00.899Z,25.80
2018-06-29T14:09:29.644Z,26.95
2018-06-29T14:11:58.669Z,27.30
2018-06-29T14:14:29.016Z,25.43
2018-06-29T14:16:57.524Z,27.80
2018-06-29T14:19:26.031Z,25.57
2018-06-29T14:21:54.531Z,22.83
2018-06-29T14:24:23.086Z,25.40
2018-06-29T14:26:51.628Z,22.33
2018-06-29T14:29:20.108Z,24.23
2018-06-29T14:31:48.730Z,27.83
2018-06-29T14:34:17.415Z,24.50
2018-06-29T14:36:45.910Z,27.30
2018-06-29T14:39:15.520Z,25.15
2018-06-29T14:41:43.666Z,27.30
2018-06-29T14:44:12.790Z,23.43
2018-06-29T14:46:43.090Z,27.80
2018-06-29T14:49:11.646Z,24.63
2018-06-29T14:51:40.143Z,23.00
2018-06-29T14:54:08.705Z,25.13
2018-06-29T14:56:37.539Z,26.30
2018-06-29T14:59:06.023Z,24.00
2018-06-29T15:01:34.519Z,22.75
2018-06-29T15:04:03.054Z,23.63
2018-06-29T15:06:32.227Z,24.00
2018-06-29T15:09:00.759Z,22.57
2018-06-29T15:11:29.231Z,22.13
2018-06-29T15:13:57.699Z,23.70
2018-06-29T15:16:26.246Z,20.27
2018-06-29T15:18:54.814Z,23.33
2018-06-29T15:21:23.402Z,23.43
2018-06-29T15:23:52.030Z,23.33
2018-06-29T15:26:20.584Z,20.70
2018-06-29T15:28:49.061Z,20.37
2018-06-29T15:31:17.640Z,19.80
2018-06-29T15:33:46.095Z,19.63
2018-06-29T15:43:50.091Z,19.97
2018-06-29T15:46:18.606Z,20.48
2018-06-29T15:48:47.320Z,17.43
2018-06-29T15:51:18.451Z,17.10
2018-06-29T15:53:46.661Z,19.57
2018-06-29T15:56:15.891Z,17.90
2018-06-29T15:58:44.370Z,16.82
2018-06-29T16:01:12.851Z,17.40
2018-06-29T16:03:41.322Z,17.27
2018-06-29T16:06:09.899Z,17.63
2018-06-29T16:14:24.231Z,18.47
2018-06-29T16:16:52.742Z,18.13
2018-06-29T16:19:21.198Z,17.48
2018-06-29T16:21:49.674Z,17.83
2018-06-29T16:24:18.211Z,20.80
2018-06-29T16:26:46.684Z,21.13
2018-06-29T16:29:17.741Z,19.85
2018-06-29T16:31:46.235Z,19.70
2018-06-29T16:34:16.997Z,20.75
2018-06-29T16:36:45.453Z,21.13
2018-06-29T16:39:15.651Z,21.27
2018-06-29T16:41:44.182Z,19.03
2018-06-29T16:44:12.650Z,19.87
2018-06-29T16:46:41.183Z,19.70
2018-06-29T16:49:09.737Z,19.20
2018-06-29T16:51:38.426Z,18.90
2018-06-29T16:54:06.982Z,19.17
2018-06-29T16:56:35.496Z,20.02
2018-06-29T16:59:04.149Z,20.63
2018-06-29T17:01:32.659Z,19.90
2018-06-29T17:04:01.138Z,20.50
2018-06-29T17:06:29.651Z,17.98
2018-06-29T17:08:58.424Z,18.13
2018-06-29T17:11:26.943Z,16.10
2018-06-29T17:13:55.081Z,16.07
2018-06-29T17:16:23.816Z,18.95
2018-06-29T17:18:52.414Z,21.90
2018-06-29T17:21:20.983Z,20.85
2018-06-29T17:23:49.595Z,20.08
2018-06-29T17:26:18.087Z,21.30
2018-06-29T17:28:46.636Z,21.43
2018-06-29T17:39:41.240Z,21.27
2018-06-29T17:42:09.783Z,23.23
2018-06-29T17:50:23.967Z,24.77
2018-06-29T17:52:52.658Z,26.23
2018-06-29T17:55:22.073Z,24.55
2018-06-29T17:57:51.080Z,26.80
2018-06-29T18:00:19.641Z,24.22
2018-06-29T18:02:48.215Z,23.93
2018-06-29T18:05:17.687Z,25.10
2018-06-29T18:07:46.945Z,23.80
2018-06-29T18:20:01.561Z,22.35
2018-06-29T18:22:32.730Z,25.97
2018-06-29T18:25:02.044Z,23.80
2018-06-29T18:27:30.246Z,23.83
2018-06-29T18:29:58.862Z,25.10
2018-06-29T18:32:27.418Z,25.45
2018-06-29T18:34:55.888Z,23.10
2018-06-29T18:37:24.414Z,24.65
2018-06-29T18:39:53.719Z,25.27
2018-06-29T18:42:22.646Z,24.43
2018-06-29T18:44:51.191Z,23.57
2018-06-29T18:47:19.742Z,25.60
2018-06-29T18:49:49.994Z,24.70
2018-06-29T18:52:18.520Z,24.13
2018-06-29T18:54:47.143Z,23.40
2018-06-29T18:57:17.607Z,24.85
2018-06-29T18:59:46.122Z,24.03
2018-06-29T19:02:17.412Z,25.23
2018-06-29T19:04:45.971Z,24.83
2018-06-29T19:07:15.655Z,25.30
2018-06-29T19:09:44.275Z,24.43
2018-06-29T19:12:13.319Z,25.83
2018-06-29T19:14:41.885Z,27.17
2018-06-29T19:17:10.451Z,29.00
2018-06-29T19:19:38.935Z,28.00
2018-06-29T19:22:07.508Z,26.20
2018-06-29T19:24:36.251Z,27.47
2018-06-29T19:27:04.915Z,25.00
2018-06-29T19:29:33.451Z,25.70
2018-06-29T19:32:02.030Z,26.03
2018-06-29T19:34:30.565Z,27.37
2018-06-29T19:36:59.159Z,27.97
2018-06-29T19:39:27.739Z,28.23
2018-06-29T19:41:56.287Z,28.17
2018-06-29T19:44:24.871Z,28.80
2018-06-29T19:46:53.395Z,28.30
2018-06-29T19:49:21.901Z,28.57
2018-06-29T19:51:50.395Z,28.40
2018-06-29T19:54:19.032Z,29.77
2018-06-29T19:56:47.612Z,29.80
2018-06-29T19:59:17.234Z,29.18
2018-06-29T20:01:49.885Z,27.57
2018-06-29T20:04:18.255Z,29.90
2018-06-29T20:06:46.805Z,29.50
2018-06-29T20:09:16.587Z,27.55
2018-06-29T20:11:44.808Z,27.27
2018-06-29T20:14:15.459Z,27.90
2018-06-29T20:16:44.150Z,27.97
2018-06-29T20:19:12.862Z,28.20
2018-06-29T20:21:41.469Z,27.70
2018-06-29T20:24:10.091Z,29.93
2018-06-29T20:26:38.680Z,27.30
2018-06-29T20:29:07.438Z,27.20
2018-06-29T20:31:36.995Z,28.47
2018-06-29T20:34:05.832Z,27.67
2018-06-29T20:36:34.505Z,27.40
2018-06-29T20:39:03.421Z,29.00
2018-06-29T20:41:32.157Z,29.13
2018-06-29T20:44:00.767Z,30.67
2018-06-29T20:46:29.516Z,29.77
2018-06-29T20:48:58.102Z,29.33
2018-06-29T20:51:26.719Z,28.57
2018-06-29T20:53:55.353Z,26.97
2018-06-29T20:56:24.003Z,27.93
2018-06-29T20:58:52.790Z,31.10
2018-06-29T21:01:21.359Z,28.30
2018-06-29T21:03:50.069Z,29.50
2018-06-29T21:06:18.567Z,26.80
2018-06-29T21:08:47.200Z,28.77
2018-06-29T21:11:17.522Z,29.70
2018-06-29T21:13:46.441Z,29.43
2018-06-29T21:16:16.906Z,29.40
2018-06-29T21:18:45.179Z,28.97
2018-06-29T21:21:14.077Z,27.40
2018-06-29T21:23:42.855Z,28.50
2018-06-29T21:26:11.322Z,28.80
2018-06-29T21:28:39.976Z,29.13
2018-06-29T21:31:08.512Z,29.03
2018-06-29T21:33:36.972Z,29.47
2018-06-29T21:36:05.546Z,31.97
2018-06-29T21:38:34.104Z,28.95
2018-06-29T21:41:02.696Z,30.60
2018-06-29T21:43:31.240Z,30.70
2018-06-29T21:45:59.827Z,31.30
2018-06-29T21:48:28.363Z,30.20
2018-06-29T21:50:56.902Z,30.47
2018-06-29T21:53:25.402Z,30.60
2018-06-29T21:55:53.931Z,32.33
2018-06-29T21:58:22.474Z,30.27
2018-06-29T22:00:54.086Z,30.80
2018-06-29T22:03:23.825Z,32.20
2018-06-29T22:05:53.390Z,30.57
2018-06-29T22:08:22.063Z,30.13
2018-06-29T22:10:50.492Z,31.80
2018-06-29T22:13:19.102Z,31.00
2018-06-29T22:15:47.886Z,32.27
2018-06-29T22:18:17.845Z,29.75
2018-06-29T22:20:46.418Z,28.80
2018-06-29T22:32:01.909Z,29.80
2018-06-29T22:34:30.419Z,29.67
2018-06-29T22:36:59.074Z,30.70
2018-06-29T22:39:27.639Z,29.13
2018-06-29T22:41:56.298Z,29.73
2018-06-29T22:44:27.835Z,27.63
2018-06-29T22:46:56.343Z,29.40
2018-06-29T22:49:25.608Z,31.03
2018-06-29T22:51:54.197Z,30.90
2018-06-29T22:54:23.250Z,29.37
2018-06-29T22:56:51.830Z,30.70
2018-06-29T22:59:20.478Z,29.80
2018-06-29T23:01:48.844Z,30.60
2018-06-29T23:04:17.576Z,30.53
2018-06-29T23:06:46.412Z,29.27
2018-06-29T23:29:44.632Z,28.87
2018-06-29T23:32:13.196Z,27.80
2018-06-29T23:34:41.700Z,28.87
2018-06-29T23:37:10.154Z,27.50
2018-06-29T23:39:38.674Z,28.57
2018-06-29T23:42:07.454Z,29.27
2018-06-29T23:44:35.934Z,29.47
2018-06-29T23:47:05.181Z,28.02
2018-06-29T23:49:33.705Z,30.75
2018-06-29T23:52:02.389Z,28.10
2018-06-29T23:54:31.181Z,28.50
2018-06-29T23:56:59.687Z,28.40
2018-06-29T23:59:32.354Z,29.73
